Terminal Aerodrome Forecast
Issued by NWS

Current Version | Previous Version | Graphics & Text | Print | Product List | Glossary On
Versions: 1 2 3 4 5 6 7 8 9 10 11 12 13 14 15 16 17 18 19 20 21 22
810
FTUS41 KILN 080538
TAFLUK
TAF
KLUK 080538Z 0806/0906 22005KT P6SM VCSH BKN070 OVC120
     FM081000 25006KT P6SM -SHRA BKN040 OVC080
     FM081300 25010KT P6SM BKN035
     FM081600 27011KT P6SM VCSH OVC035
     FM081800 28011KT 5SM -SHRA BR OVC025
     FM090200 27009KT P6SM -SN BKN015 OVC025=

USA.gov is the U.S. government's official web portal to all federal, state and local government web resources and services.